Time;durP1;ratioP1;P1;durP2;ratioP2;P2;SDS_P1;SDS_P2;PMS_P1;PMS_P2;Temp;Humidity;BMP_temperature;BMP_pressure;BME280_temperature;BME280_humidity;BME280_pressure;Samples;Min_cycle;Max_cycle;Signal;HPM_P1;HPM_P2
2021/10/10 04:31:20;;;;;;;18.77;12.50;;;3.10;99.90;;;;;;5749498;23;20955;-79
2021/10/10 04:33:45;;;;;;;17.87;11.63;;;3.00;99.90;;;;;;5001606;28;20412;-80
2021/10/10 04:36:11;;;;;;;16.30;12.30;;;3.00;99.90;;;;;;5014341;28;20183;-79
2021/10/10 04:38:36;;;;;;;18.10;11.97;;;3.00;99.90;;;;;;5013819;28;20224;-79
2021/10/10 04:41:02;;;;;;;17.00;11.17;;;3.00;99.90;;;;;;5009790;28;20254;-80
2021/10/10 04:43:27;;;;;;;16.83;11.87;;;3.00;99.90;;;;;;4993404;28;20218;-81
2021/10/10 04:45:53;;;;;;;19.03;12.47;;;2.90;99.90;;;;;;4994347;28;20648;-79
2021/10/10 04:48:18;;;;;;;24.07;11.77;;;2.90;99.90;;;;;;4994046;28;20212;-78
2021/10/10 04:50:44;;;;;;;19.77;12.40;;;2.90;99.90;;;;;;4994519;28;20226;-78
2021/10/10 04:53:09;;;;;;;23.07;12.00;;;2.80;99.90;;;;;;4994745;28;20293;-79
2021/10/10 04:55:35;;;;;;;16.77;13.07;;;2.80;99.90;;;;;;4994426;28;20188;-80
2021/10/10 04:58:01;;;;;;;18.03;12.40;;;2.80;99.90;;;;;;4993493;28;20176;-80
2021/10/10 05:00:27;;;;;;;27.80;13.83;;;2.80;99.90;;;;;;4993842;28;20211;-79
2021/10/10 05:02:53;;;;;;;17.50;11.13;;;2.80;99.90;;;;;;4993461;28;20457;-79
2021/10/10 05:05:19;;;;;;;19.90;11.83;;;2.80;99.90;;;;;;4993671;28;20171;-80
2021/10/10 05:07:44;;;;;;;15.80;12.10;;;2.80;99.90;;;;;;4994278;28;20429;-78
2021/10/10 05:10:10;;;;;;;17.80;12.10;;;2.80;99.90;;;;;;4993452;28;20180;-79
2021/10/10 05:12:36;;;;;;;16.30;12.27;;;2.80;99.90;;;;;;4996973;28;20207;-80
2021/10/10 05:15:03;;;;;;;19.77;12.50;;;2.80;99.90;;;;;;4997249;28;20214;-80
2021/10/10 05:17:28;;;;;;;18.80;13.10;;;2.70;99.90;;;;;;4996404;28;20508;-79
2021/10/10 05:19:54;;;;;;;20.97;13.03;;;2.70;99.90;;;;;;4996791;28;20414;-80
2021/10/10 05:22:19;;;;;;;18.23;12.60;;;2.70;99.90;;;;;;4997106;28;20550;-80
2021/10/10 05:24:45;;;;;;;19.37;12.37;;;2.70;99.90;;;;;;4994340;28;20175;-78
2021/10/10 05:27:10;;;;;;;21.67;12.90;;;2.70;99.90;;;;;;4994266;28;20196;-80
2021/10/10 05:29:36;;;;;;;27.13;12.43;;;2.70;99.90;;;;;;4993689;28;20185;-80
2021/10/10 05:32:02;;;;;;;14.63;11.43;;;2.70;99.90;;;;;;4994170;28;20214;-80
2021/10/10 05:34:27;;;;;;;21.47;12.60;;;2.70;99.90;;;;;;4993635;28;20172;-80
2021/10/10 05:36:54;;;;;;;18.93;13.67;;;2.70;99.90;;;;;;4993319;28;20211;-80
2021/10/10 05:39:20;;;;;;;19.63;12.70;;;2.70;99.90;;;;;;4993289;28;20176;-80
2021/10/10 05:41:46;;;;;;;16.23;11.77;;;2.70;99.90;;;;;;4993682;28;20422;-78
2021/10/10 05:44:12;;;;;;;20.40;12.40;;;2.60;99.90;;;;;;4994053;28;20701;-79
2021/10/10 05:46:37;;;;;;;22.10;12.80;;;2.60;99.90;;;;;;4994283;28;20219;-79
2021/10/10 05:49:03;;;;;;;17.40;12.80;;;2.60;99.90;;;;;;4993580;28;20627;-78
2021/10/10 05:51:28;;;;;;;16.43;11.47;;;2.60;99.90;;;;;;4993485;28;20269;-80
2021/10/10 05:53:54;;;;;;;19.73;11.83;;;2.70;99.90;;;;;;4993299;28;20302;-80
2021/10/10 05:56:19;;;;;;;16.43;12.27;;;2.70;99.90;;;;;;4993915;28;20207;-80
2021/10/10 05:58:50;;;;;;;18.63;12.83;;;2.70;99.90;;;;;;4993005;28;20327;-79
2021/10/10 06:01:15;;;;;;;25.23;12.80;;;2.80;99.90;;;;;;4992422;28;20203;-76
2021/10/10 06:03:41;;;;;;;20.50;12.70;;;2.90;99.90;;;;;;4992219;28;20458;-75
2021/10/10 06:06:06;;;;;;;20.27;12.77;;;2.90;99.90;;;;;;4991509;28;20187;-75
2021/10/10 06:08:32;;;;;;;19.50;12.13;;;3.00;99.90;;;;;;4991618;28;20256;-75
2021/10/10 06:10:58;;;;;;;16.87;12.30;;;3.10;99.90;;;;;;4991944;28;20218;-75
2021/10/10 06:13:23;;;;;;;18.03;13.47;;;3.20;99.90;;;;;;4991582;28;20295;-76
2021/10/10 06:15:50;;;;;;;23.13;13.70;;;3.30;99.90;;;;;;4991930;28;20186;-75
2021/10/10 06:18:15;;;;;;;20.97;12.70;;;3.40;99.90;;;;;;4991281;28;20176;-75
2021/10/10 06:20:41;;;;;;;21.70;13.07;;;3.50;99.90;;;;;;4991192;28;20400;-75
2021/10/10 06:23:08;;;;;;;18.77;12.90;;;3.60;99.90;;;;;;4991538;28;20199;-75
2021/10/10 06:25:33;;;;;;;16.93;12.67;;;3.70;99.90;;;;;;4991806;28;20680;-76
2021/10/10 06:27:59;;;;;;;21.40;12.63;;;3.80;99.90;;;;;;4991013;28;20417;-75
2021/10/10 06:30:24;;;;;;;19.50;12.17;;;4.00;99.90;;;;;;4991996;28;20228;-74
2021/10/10 06:32:50;;;;;;;18.07;11.77;;;4.10;99.90;;;;;;4990298;28;20617;-75
2021/10/10 06:35:15;;;;;;;20.13;13.83;;;4.20;99.90;;;;;;4987849;28;20188;-75
2021/10/10 06:37:41;;;;;;;18.40;12.53;;;4.40;99.90;;;;;;4980246;28;20182;-75
2021/10/10 06:40:07;;;;;;;19.00;12.43;;;4.50;99.90;;;;;;4971428;28;20196;-75
2021/10/10 06:42:32;;;;;;;16.50;11.83;;;4.70;99.90;;;;;;4971888;28;20612;-76
2021/10/10 06:44:58;;;;;;;20.40;12.33;;;5.40;99.90;;;;;;4970433;28;20420;-76
2021/10/10 06:47:23;;;;;;;15.10;11.13;;;6.80;99.90;;;;;;4971763;28;20177;-76
2021/10/10 06:49:49;;;;;;;18.43;11.40;;;8.60;99.90;;;;;;4971365;28;20264;-76
2021/10/10 06:52:14;;;;;;;13.57;10.07;;;10.30;99.90;;;;;;4971632;28;20207;-71
2021/10/10 06:54:41;;;;;;;16.50;10.87;;;11.80;99.90;;;;;;4971669;28;20214;-74
2021/10/10 06:57:06;;;;;;;13.60;10.67;;;12.60;99.90;;;;;;4971670;28;20207;-72
2021/10/10 06:59:32;;;;;;;13.37;9.97;;;13.40;99.90;;;;;;4971171;28;20415;-73
2021/10/10 07:01:58;;;;;;;12.27;9.40;;;13.90;99.90;;;;;;4971596;28;20257;-74
2021/10/10 07:04:23;;;;;;;12.67;11.13;;;14.70;99.90;;;;;;4971550;28;20200;-74
2021/10/10 07:06:49;;;;;;;16.83;10.87;;;15.00;99.90;;;;;;4971311;28;20179;-74
2021/10/10 07:09:15;;;;;;;13.63;11.23;;;15.00;99.90;;;;;;4969673;28;20182;-73
2021/10/10 07:11:40;;;;;;;12.57;11.00;;;15.20;99.90;;;;;;4971894;28;20275;-74
2021/10/10 07:14:06;;;;;;;20.37;11.00;;;15.60;99.90;;;;;;4971706;28;20991;-74
2021/10/10 07:16:34;;;;;;;16.17;11.50;;;15.70;99.90;;;;;;4971863;28;20180;-73
2021/10/10 07:19:01;;;;;;;16.80;12.33;;;15.70;99.90;;;;;;4970792;28;20179;-73
2021/10/10 07:26:37;;;;;;;14.70;10.80;;;15.60;99.90;;;;;;4970744;28;20411;-73
2021/10/10 07:29:04;;;;;;;22.63;12.73;;;15.30;99.90;;;;;;4970964;28;20176;-73
2021/10/10 07:31:29;;;;;;;18.43;13.20;;;14.90;99.90;;;;;;4972037;28;21014;-74
2021/10/10 07:33:55;;;;;;;18.60;12.70;;;14.30;99.90;;;;;;4975231;28;20514;-74
2021/10/10 07:36:20;;;;;;;16.53;13.10;;;13.70;99.90;;;;;;4975621;28;20180;-77
2021/10/10 07:38:46;;;;;;;16.00;12.23;;;13.50;99.90;;;;;;4975060;28;20226;-75
2021/10/10 07:41:12;;;;;;;20.00;13.10;;;13.30;99.90;;;;;;4974975;28;20830;-75
2021/10/10 07:43:39;;;;;;;17.27;13.50;;;13.10;99.90;;;;;;4975487;28;20207;-74
2021/10/10 07:46:06;;;;;;;19.47;11.67;;;12.60;99.90;;;;;;4974974;28;20195;-74
2021/10/10 07:48:36;;;;;;;17.90;13.63;;;12.60;99.90;;;;;;4974908;28;20975;-74
2021/10/10 07:51:02;;;;;;;20.13;12.87;;;12.60;99.90;;;;;;4974105;28;20435;-75
2021/10/10 07:53:28;;;;;;;20.33;12.40;;;12.90;99.90;;;;;;4974888;28;20451;-74
2021/10/10 07:55:53;;;;;;;22.27;13.30;;;12.90;99.90;;;;;;4974863;28;20420;-73
2021/10/10 07:58:19;;;;;;;16.40;12.83;;;13.10;99.90;;;;;;4974365;28;20279;-73
2021/10/10 08:00:45;;;;;;;14.67;12.37;;;13.30;99.90;;;;;;4973712;28;20219;-73
2021/10/10 08:03:10;;;;;;;16.73;12.73;;;13.70;99.90;;;;;;4974632;28;20204;-73
2021/10/10 08:05:41;;;;;;;20.17;12.67;;;13.50;99.90;;;;;;4975038;28;20553;-73
2021/10/10 08:08:07;;;;;;;18.07;13.47;;;13.70;99.90;;;;;;4974260;28;20207;-73
2021/10/10 08:10:32;;;;;;;17.07;13.80;;;13.80;99.90;;;;;;4975093;28;20449;-75
2021/10/10 08:12:58;;;;;;;21.17;14.30;;;13.80;99.90;;;;;;4973933;28;20249;-75
2021/10/10 08:15:23;;;;;;;17.73;13.60;;;13.70;99.90;;;;;;4974223;28;20193;-76
2021/10/10 08:17:49;;;;;;;25.93;14.57;;;14.10;99.90;;;;;;4977205;28;20180;-75
2021/10/10 08:20:15;;;;;;;19.97;13.83;;;14.00;99.90;;;;;;4974648;28;20184;-74
2021/10/10 08:22:41;;;;;;;19.80;13.53;;;14.40;99.90;;;;;;4974534;28;20518;-75
2021/10/10 08:25:11;;;;;;;15.43;12.40;;;14.40;99.90;;;;;;4974387;28;20787;-75
2021/10/10 08:27:40;;;;;;;17.13;13.60;;;14.60;99.90;;;;;;4974765;28;20415;-76
2021/10/10 08:30:16;;;;;;;21.00;14.93;;;14.70;99.90;;;;;;4973828;28;20408;-75
2021/10/10 08:32:43;;;;;;;19.63;12.60;;;14.70;99.90;;;;;;4973901;28;20533;-74
2021/10/10 08:35:09;;;;;;;18.10;13.13;;;14.80;99.90;;;;;;4974440;28;20411;-76
2021/10/10 08:37:35;;;;;;;20.00;13.80;;;14.90;99.90;;;;;;4974447;28;20416;-75
2021/10/10 08:40:00;;;;;;;20.50;14.57;;;15.00;99.90;;;;;;4972424;28;20933;-76
2021/10/10 08:42:32;;;;;;;22.00;12.10;;;15.20;99.90;;;;;;4974335;28;20200;-75
2021/10/10 08:45:05;;;;;;;20.50;13.47;;;15.10;99.90;;;;;;4973167;28;20180;-75
2021/10/10 08:47:32;;;;;;;19.63;13.50;;;15.20;99.90;;;;;;4973332;28;20447;-75
2021/10/10 08:49:59;;;;;;;20.93;13.53;;;15.20;99.90;;;;;;4973606;28;20404;-75
2021/10/10 08:52:24;;;;;;;18.93;13.03;;;15.10;99.90;;;;;;4974254;28;20424;-76
2021/10/10 08:54:51;;;;;;;18.97;12.83;;;15.20;99.90;;;;;;4973917;28;21018;-74
2021/10/10 08:57:17;;;;;;;21.10;13.80;;;15.40;99.90;;;;;;4974391;28;20251;-74
2021/10/10 08:59:48;;;;;;;22.17;12.80;;;15.70;99.90;;;;;;4974134;28;20459;-74
2021/10/10 09:02:19;;;;;;;20.93;13.50;;;15.80;99.90;;;;;;4974086;28;20798;-74
2021/10/10 09:04:45;;;;;;;17.83;13.43;;;15.80;99.90;;;;;;4974180;28;20462;-76
2021/10/10 09:07:10;;;;;;;20.90;12.40;;;16.10;99.90;;;;;;4973954;28;20412;-76
2021/10/10 09:09:37;;;;;;;24.90;14.73;;;16.00;99.90;;;;;;4973612;28;20182;-76
2021/10/10 09:12:11;;;;;;;19.40;14.13;;;16.30;99.90;;;;;;4972781;28;20803;-77
2021/10/10 09:14:48;;;;;;;20.58;15.27;;;16.30;99.90;;;;;;4972488;28;20422;-74
2021/10/10 09:17:19;;;;;;;20.27;14.77;;;16.30;99.90;;;;;;4974177;28;20653;-74
2021/10/10 09:19:56;;;;;;;25.93;14.50;;;16.40;99.90;;;;;;4973518;28;20916;-75
2021/10/10 09:22:23;;;;;;;21.80;14.03;;;16.60;99.90;;;;;;4974106;28;20819;-75
2021/10/10 09:24:50;;;;;;;18.50;13.10;;;16.80;99.90;;;;;;4973399;28;20968;-76
2021/10/10 09:27:17;;;;;;;19.37;12.90;;;16.90;99.90;;;;;;4973948;28;20783;-76
2021/10/10 09:29:46;;;;;;;17.00;13.27;;;17.30;99.90;;;;;;4973290;28;20629;-75
2021/10/10 09:32:24;;;;;;;18.60;13.50;;;17.40;99.90;;;;;;4973571;28;20475;-76
2021/10/10 09:34:50;;;;;;;22.60;14.33;;;17.10;99.90;;;;;;4970749;28;20431;-77
2021/10/10 09:37:33;;;;;;;20.50;12.87;;;17.20;99.90;;;;;;4973421;28;20423;-76
2021/10/10 09:40:04;;;;;;;17.17;13.40;;;17.00;99.90;;;;;;4972485;28;20419;-77
2021/10/10 09:42:36;;;;;;;19.33;12.53;;;17.30;99.90;;;;;;4972215;28;20880;-77
2021/10/10 09:45:24;;;;;;;22.00;15.27;;;17.10;99.90;;;;;;4973322;28;20956;-77
2021/10/10 09:47:59;;;;;;;24.33;12.23;;;17.30;99.90;;;;;;4972851;28;20435;-76
2021/10/10 09:50:27;;;;;;;22.03;12.27;;;17.30;99.90;;;;;;4972906;28;20426;-76
2021/10/10 09:53:02;;;;;;;18.33;13.00;;;17.10;99.90;;;;;;4973129;28;20538;-76
2021/10/10 09:55:30;;;;;;;18.57;11.93;;;17.10;99.90;;;;;;4972224;28;20411;-77
2021/10/10 09:57:56;;;;;;;18.30;13.13;;;17.60;99.90;;;;;;4972584;28;20416;-77
2021/10/10 10:00:25;;;;;;;19.20;13.17;;;17.80;99.90;;;;;;4972778;28;20419;-76
2021/10/10 10:02:51;;;;;;;16.60;12.53;;;17.90;99.90;;;;;;4973015;28;20969;-77
2021/10/10 10:05:30;;;;;;;16.80;13.30;;;18.10;99.90;;;;;;4972976;28;20411;-75
2021/10/10 10:07:56;;;;;;;16.40;12.40;;;17.80;99.90;;;;;;4972878;28;20473;-77
2021/10/10 10:10:25;;;;;;;23.70;13.37;;;17.80;99.90;;;;;;4972815;28;20423;-77
2021/10/10 10:12:51;;;;;;;21.10;11.87;;;18.00;99.90;;;;;;4973031;28;20449;-77
2021/10/10 10:15:28;;;;;;;14.63;11.63;;;18.20;99.90;;;;;;4972540;28;20419;-76
2021/10/10 10:17:55;;;;;;;14.07;12.27;;;18.40;99.90;;;;;;4971869;28;20423;-75
2021/10/10 10:20:23;;;;;;;18.30;11.73;;;18.50;99.90;;;;;;4971264;28;20442;-77
2021/10/10 10:22:52;;;;;;;16.53;12.70;;;18.40;99.90;;;;;;4972569;28;20467;-76
2021/10/10 10:25:18;;;;;;;18.43;13.20;;;18.40;99.90;;;;;;4972739;28;20493;-77
2021/10/10 10:27:44;;;;;;;13.03;11.23;;;18.70;99.90;;;;;;4972447;28;20461;-76
2021/10/10 10:30:10;;;;;;;20.83;12.10;;;19.00;99.90;;;;;;4972055;28;20427;-77
2021/10/10 10:32:36;;;;;;;15.63;12.23;;;18.90;99.90;;;;;;4972937;28;20212;-77
2021/10/10 10:35:08;;;;;;;19.90;13.27;;;18.90;99.90;;;;;;4982733;28;20470;-76
2021/10/10 10:37:42;;;;;;;16.20;11.90;;;18.80;99.90;;;;;;4976594;28;20895;-75
2021/10/10 10:40:14;;;;;;;17.60;11.47;;;18.70;99.90;;;;;;4971759;28;20450;-77
2021/10/10 10:42:44;;;;;;;15.40;12.17;;;18.80;99.90;;;;;;4972631;28;20442;-77
2021/10/10 10:45:29;;;;;;;15.50;12.23;;;18.60;99.90;;;;;;4971454;28;20431;-77
2021/10/10 10:47:57;;;;;;;15.60;11.73;;;18.30;99.90;;;;;;4972457;28;20419;-74
2021/10/10 10:50:28;;;;;;;19.23;11.27;;;18.40;99.90;;;;;;4971576;28;20428;-75
2021/10/10 10:53:00;;;;;;;17.30;12.50;;;18.20;99.90;;;;;;4971997;28;20482;-74
2021/10/10 10:55:35;;;;;;;19.60;12.30;;;18.30;99.90;;;;;;4972514;28;20418;-76
2021/10/10 10:58:11;;;;;;;19.73;11.90;;;18.00;99.90;;;;;;4971970;28;20418;-77
2021/10/10 11:00:43;;;;;;;15.40;11.60;;;17.90;99.90;;;;;;4971414;28;20423;-76
2021/10/10 11:03:26;;;;;;;17.63;13.33;;;18.00;99.90;;;;;;4971683;28;20518;-76
2021/10/10 11:06:00;;;;;;;16.10;11.63;;;17.70;99.90;;;;;;4972066;28;20836;-75
2021/10/10 11:08:26;;;;;;;18.73;11.60;;;17.50;99.90;;;;;;4970868;28;20457;-75
2021/10/10 11:11:03;;;;;;;14.40;9.70;;;17.10;99.90;;;;;;4972209;28;20468;-76
2021/10/10 11:13:35;;;;;;;15.07;9.33;;;17.00;99.90;;;;;;4972302;28;20218;-76
2021/10/10 11:16:09;;;;;;;16.07;9.63;;;16.70;99.90;;;;;;4972361;28;20422;-76
2021/10/10 11:18:41;;;;;;;15.57;9.63;;;16.60;99.90;;;;;;4971889;28;20929;-74
2021/10/10 11:21:08;;;;;;;10.10;8.70;;;16.70;99.90;;;;;;4971687;28;20855;-76
2021/10/10 11:23:35;;;;;;;16.00;9.07;;;16.70;99.90;;;;;;4972286;28;20506;-73
2021/10/10 11:26:06;;;;;;;17.37;9.37;;;16.50;99.90;;;;;;4971626;28;20416;-76
2021/10/10 11:28:35;;;;;;;13.43;8.27;;;16.60;99.90;;;;;;4971496;28;20470;-76
2021/10/10 11:31:21;;;;;;;14.23;9.23;;;16.50;99.90;;;;;;4971007;28;20439;-76
2021/10/10 11:33:48;;;;;;;16.00;9.77;;;16.20;99.90;;;;;;4971686;28;20793;-75
2021/10/10 11:36:15;;;;;;;16.27;9.93;;;16.10;99.90;;;;;;4971594;28;20423;-74
2021/10/10 11:38:52;;;;;;;15.20;9.67;;;16.10;99.90;;;;;;4971172;28;20423;-76
2021/10/10 11:41:18;;;;;;;11.03;9.00;;;16.10;99.90;;;;;;4970442;28;20451;-75
2021/10/10 11:43:58;;;;;;;14.30;9.27;;;16.10;99.90;;;;;;4971316;28;20845;-76
2021/10/10 11:46:25;;;;;;;14.00;8.83;;;15.80;99.90;;;;;;4971782;28;20418;-75
2021/10/10 11:48:52;;;;;;;21.57;9.90;;;16.00;99.90;;;;;;4971014;28;20568;-75
2021/10/10 11:51:27;;;;;;;13.40;7.87;;;16.00;99.90;;;;;;4971044;28;20526;-74
2021/10/10 11:53:52;;;;;;;13.40;9.13;;;15.80;99.90;;;;;;4971661;28;20791;-77
2021/10/10 11:56:18;;;;;;;14.33;9.70;;;15.80;99.90;;;;;;4971465;28;20423;-75
2021/10/10 11:58:44;;;;;;;16.63;10.00;;;15.80;99.90;;;;;;4969566;28;20176;-75
2021/10/10 12:01:11;;;;;;;10.03;8.60;;;15.80;99.90;;;;;;4971247;28;20303;-76
2021/10/10 12:03:45;;;;;;;13.90;8.60;;;15.80;99.90;;;;;;4971074;28;20212;-74
2021/10/10 12:06:19;;;;;;;13.50;8.67;;;16.00;99.90;;;;;;4971199;28;20426;-76
2021/10/10 12:08:45;;;;;;;10.90;8.30;;;16.00;99.90;;;;;;4970918;28;20559;-75
2021/10/10 12:11:11;;;;;;;13.03;7.90;;;15.90;99.90;;;;;;4972398;28;20935;-76
2021/10/10 12:13:52;;;;;;;9.93;8.00;;;15.90;99.90;;;;;;4970866;28;20421;-76
2021/10/10 12:16:18;;;;;;;15.13;8.83;;;16.00;99.90;;;;;;4971494;28;20211;-75
2021/10/10 12:18:44;;;;;;;11.73;8.07;;;16.10;99.90;;;;;;4971604;28;20450;-76
2021/10/10 12:21:25;;;;;;;12.00;8.40;;;15.90;99.90;;;;;;4973574;28;20223;-76
2021/10/10 12:24:14;;;;;;;10.50;8.00;;;15.90;99.90;;;;;;4974832;28;20876;-76
2021/10/10 12:26:44;;;;;;;13.70;8.47;;;15.70;99.90;;;;;;4975052;28;20494;-75
2021/10/10 12:29:27;;;;;;;13.50;8.50;;;15.60;99.90;;;;;;4974270;28;20415;-76
2021/10/10 12:31:54;;;;;;;21.57;10.03;;;15.60;99.90;;;;;;4974738;28;20489;-76
2021/10/10 12:34:31;;;;;;;21.23;10.43;;;15.60;99.90;;;;;;4974334;28;20481;-75
2021/10/10 12:36:56;;;;;;;13.30;10.17;;;15.70;99.90;;;;;;4974755;28;20539;-75
2021/10/10 12:39:40;;;;;;;16.17;8.80;;;15.80;99.90;;;;;;4974339;28;20568;-76
2021/10/10 12:42:05;;;;;;;15.10;10.20;;;15.80;99.90;;;;;;4974537;28;20224;-76
2021/10/10 12:44:31;;;;;;;17.63;11.87;;;15.70;99.90;;;;;;4974235;28;20864;-75
2021/10/10 12:46:57;;;;;;;15.97;10.03;;;15.80;99.90;;;;;;4974554;28;20255;-75
2021/10/10 12:49:30;;;;;;;18.60;9.27;;;15.80;99.90;;;;;;4974117;28;20190;-75
2021/10/10 12:51:56;;;;;;;13.70;9.40;;;15.90;99.90;;;;;;4972961;28;20204;-74
2021/10/10 12:54:23;;;;;;;13.27;9.30;;;15.90;99.90;;;;;;4974271;28;20510;-75
2021/10/10 12:57:06;;;;;;;19.50;10.37;;;15.90;99.90;;;;;;4974420;28;20473;-75
2021/10/10 12:59:35;;;;;;;10.10;8.43;;;15.90;99.90;;;;;;4973868;28;20484;-76
2021/10/10 13:02:01;;;;;;;12.97;9.10;;;15.90;99.90;;;;;;4974117;28;20459;-75
2021/10/10 13:04:27;;;;;;;12.73;8.90;;;15.80;99.90;;;;;;4973847;28;20466;-74
2021/10/10 13:06:54;;;;;;;11.10;8.83;;;15.60;99.90;;;;;;4974131;28;20415;-75
2021/10/10 13:09:24;;;;;;;12.10;8.77;;;15.70;99.90;;;;;;4973896;28;20295;-75
2021/10/10 13:11:52;;;;;;;14.23;8.70;;;15.70;99.90;;;;;;4973591;28;20439;-74
2021/10/10 13:14:18;;;;;;;15.97;8.73;;;15.80;99.90;;;;;;4973677;28;20423;-75
2021/10/10 13:16:44;;;;;;;19.10;10.03;;;15.90;99.90;;;;;;4973958;28;20426;-74
2021/10/10 13:19:10;;;;;;;14.00;9.17;;;15.70;99.90;;;;;;4973688;28;20505;-76
2021/10/10 13:21:36;;;;;;;13.27;9.27;;;15.60;99.90;;;;;;4974065;28;20238;-75
2021/10/10 13:24:01;;;;;;;19.43;10.53;;;15.50;99.90;;;;;;4973812;28;20219;-76
2021/10/10 13:26:27;;;;;;;16.13;10.10;;;15.60;99.90;;;;;;4974056;28;20415;-75
2021/10/10 13:28:52;;;;;;;11.10;9.43;;;15.50;99.90;;;;;;4973527;28;20618;-76
2021/10/10 13:31:19;;;;;;;15.53;10.57;;;15.40;99.90;;;;;;4973940;28;20215;-74
2021/10/10 13:33:44;;;;;;;10.70;9.10;;;15.20;99.90;;;;;;4974391;28;20272;-73
2021/10/10 13:36:10;;;;;;;14.57;10.67;;;15.20;99.90;;;;;;4973730;28;20498;-75
2021/10/10 13:38:36;;;;;;;14.77;10.87;;;15.20;99.90;;;;;;4973593;28;20268;-73
2021/10/10 13:41:03;;;;;;;16.20;10.50;;;15.20;99.90;;;;;;4973838;28;20210;-76
2021/10/10 13:43:29;;;;;;;18.73;10.23;;;15.20;99.90;;;;;;4973746;28;20466;-76
2021/10/10 13:45:57;;;;;;;14.40;10.97;;;15.20;99.90;;;;;;4973645;28;20415;-75
2021/10/10 13:48:24;;;;;;;15.37;10.23;;;15.30;99.90;;;;;;4974188;28;20844;-76
2021/10/10 13:50:51;;;;;;;14.53;10.87;;;15.30;99.90;;;;;;4972742;28;20515;-75
2021/10/10 13:53:16;;;;;;;18.50;11.07;;;15.20;99.90;;;;;;4973552;28;20415;-75
2021/10/10 13:55:42;;;;;;;15.90;10.77;;;15.10;99.90;;;;;;4973387;28;20409;-75
2021/10/10 13:58:08;;;;;;;15.80;10.23;;;15.10;99.90;;;;;;4973230;28;20200;-76
2021/10/10 14:00:33;;;;;;;19.13;10.20;;;15.00;99.90;;;;;;4972656;28;20199;-73
2021/10/10 14:03:01;;;;;;;12.97;9.57;;;15.00;99.90;;;;;;4973141;28;20299;-75
2021/10/10 14:05:28;;;;;;;11.30;8.90;;;14.90;99.90;;;;;;4973543;28;20172;-75
2021/10/10 14:07:54;;;;;;;17.37;8.53;;;15.00;99.90;;;;;;4973100;28;20526;-75
2021/10/10 14:10:19;;;;;;;13.00;8.80;;;15.00;99.90;;;;;;4971264;28;20498;-75
2021/10/10 14:12:45;;;;;;;14.73;10.43;;;14.90;99.90;;;;;;4973154;28;20231;-76
2021/10/10 14:15:10;;;;;;;12.83;8.97;;;14.90;99.90;;;;;;4972571;28;20185;-76
2021/10/10 14:17:36;;;;;;;10.90;8.40;;;14.90;99.90;;;;;;4973125;28;20208;-74
2021/10/10 14:20:02;;;;;;;13.10;9.70;;;14.90;99.90;;;;;;4972406;28;20704;-76
2021/10/10 14:22:28;;;;;;;14.97;9.33;;;14.90;99.90;;;;;;4972322;28;20792;-75
2021/10/10 14:24:53;;;;;;;10.17;8.63;;;14.80;99.90;;;;;;4972721;28;20466;-73
2021/10/10 14:27:19;;;;;;;15.20;8.33;;;14.80;99.90;;;;;;4972902;28;20191;-75
2021/10/10 14:29:44;;;;;;;18.33;7.60;;;14.80;99.90;;;;;;4972515;28;20662;-75
2021/10/10 14:32:10;;;;;;;11.10;8.50;;;14.80;99.90;;;;;;4972375;28;20239;-75
2021/10/10 14:34:36;;;;;;;14.43;8.37;;;14.80;99.90;;;;;;4972584;28;20336;-75
2021/10/10 14:37:03;;;;;;;14.83;8.30;;;14.80;99.90;;;;;;4972156;28;20536;-76
2021/10/10 14:39:31;;;;;;;10.20;8.07;;;14.80;99.90;;;;;;4971925;28;20168;-75
2021/10/10 14:42:02;;;;;;;12.87;8.43;;;14.70;99.90;;;;;;4971676;28;20435;-76
2021/10/10 14:45:12;;;;;;;12.00;8.60;;;14.70;99.90;;;;;;4972795;28;20463;-75
2021/10/10 14:49:48;;;;;;;12.20;8.27;;;14.70;99.90;;;;;;4971913;28;20495;-75
2021/10/10 14:52:14;;;;;;;11.23;9.10;;;14.60;99.90;;;;;;4972213;28;20478;-74
2021/10/10 14:54:40;;;;;;;11.20;7.73;;;14.60;99.90;;;;;;4972912;28;20204;-75
2021/10/10 14:57:10;;;;;;;13.03;9.27;;;14.50;99.90;;;;;;4972250;28;20443;-75
2021/10/10 14:59:35;;;;;;;11.33;7.87;;;14.50;99.90;;;;;;4970858;28;20172;-76
2021/10/10 15:02:01;;;;;;;10.77;7.30;;;14.50;99.90;;;;;;4971683;28;20443;-76
2021/10/10 15:04:27;;;;;;;13.40;7.90;;;14.40;99.90;;;;;;4971157;28;20239;-75
2021/10/10 15:06:52;;;;;;;16.87;8.87;;;14.40;99.90;;;;;;4971951;28;20284;-75
2021/10/10 15:09:18;;;;;;;13.17;7.70;;;14.40;99.90;;;;;;4971350;28;20258;-75
2021/10/10 15:11:43;;;;;;;11.83;7.37;;;14.40;99.90;;;;;;4969912;28;20200;-75
2021/10/10 15:14:09;;;;;;;16.70;7.37;;;14.30;99.90;;;;;;4971285;28;20183;-75
2021/10/10 15:16:34;;;;;;;9.83;8.27;;;14.30;99.90;;;;;;4971670;28;20187;-75
2021/10/10 15:19:00;;;;;;;8.90;7.47;;;14.30;99.90;;;;;;4971096;28;20180;-75
2021/10/10 15:21:25;;;;;;;11.17;6.87;;;14.30;99.90;;;;;;4971952;28;20210;-76
2021/10/10 15:23:51;;;;;;;10.03;6.93;;;14.20;99.90;;;;;;4971648;28;20262;-74
2021/10/10 15:26:16;;;;;;;16.43;7.30;;;14.10;99.90;;;;;;4970327;28;20254;-74
2021/10/10 15:28:42;;;;;;;14.53;6.87;;;14.10;99.90;;;;;;4971379;28;20172;-74
2021/10/10 15:31:08;;;;;;;8.87;6.53;;;14.10;99.90;;;;;;4971101;28;20565;-74
2021/10/10 15:33:33;;;;;;;8.17;6.47;;;14.00;99.90;;;;;;4978728;28;20436;-75
2021/10/10 15:35:59;;;;;;;8.03;6.13;;;13.90;99.90;;;;;;4984374;28;20691;-74
2021/10/10 15:38:26;;;;;;;10.83;6.37;;;13.80;99.90;;;;;;4990894;28;20175;-74
2021/10/10 15:40:59;;;;;;;10.77;6.77;;;13.80;99.90;;;;;;4989896;28;20199;-74
2021/10/10 15:43:30;;;;;;;6.57;5.80;;;13.80;99.90;;;;;;4990799;28;20466;-75
2021/10/10 15:45:55;;;;;;;7.13;6.30;;;13.80;99.90;;;;;;4990730;28;20501;-74
2021/10/10 15:48:21;;;;;;;9.20;7.73;;;13.70;99.90;;;;;;4990810;28;20494;-74
2021/10/10 15:50:47;;;;;;;8.60;7.00;;;13.70;99.90;;;;;;4989917;28;20171;-75
2021/10/10 15:53:14;;;;;;;11.77;6.87;;;13.70;99.90;;;;;;4992552;28;20233;-75
2021/10/10 15:55:40;;;;;;;8.77;6.40;;;13.60;99.90;;;;;;4994709;28;20267;-74
2021/10/10 15:58:06;;;;;;;8.87;6.03;;;13.50;99.90;;;;;;4994616;28;20925;-75
2021/10/10 16:00:33;;;;;;;8.40;6.10;;;13.40;99.90;;;;;;4994013;28;20182;-74
2021/10/10 16:02:58;;;;;;;8.80;6.13;;;13.30;99.90;;;;;;4993403;28;20183;-75
2021/10/10 16:05:24;;;;;;;14.27;6.73;;;13.30;99.90;;;;;;4994443;28;20780;-75
2021/10/10 16:07:49;;;;;;;11.43;8.30;;;13.20;99.90;;;;;;4994401;28;20543;-74
2021/10/10 16:10:15;;;;;;;10.40;7.83;;;13.20;99.90;;;;;;4993969;28;20199;-73
2021/10/10 16:12:41;;;;;;;10.63;7.77;;;13.10;99.90;;;;;;4994370;28;20195;-75
2021/10/10 16:15:08;;;;;;;8.80;7.13;;;13.00;99.90;;;;;;4993581;28;20202;-76
2021/10/10 16:17:35;;;;;;;17.50;11.10;;;12.90;99.90;;;;;;4994199;28;20184;-75
2021/10/10 16:20:00;;;;;;;10.93;7.77;;;12.80;99.90;;;;;;4993602;28;20426;-76
2021/10/10 16:22:27;;;;;;;19.93;8.30;;;12.60;99.90;;;;;;4992593;28;20815;-76
2021/10/10 16:24:55;;;;;;;15.73;8.30;;;12.50;99.90;;;;;;4993978;28;20223;-75
2021/10/10 16:27:21;;;;;;;12.57;8.07;;;12.30;99.90;;;;;;4993974;28;20473;-75
2021/10/10 16:29:46;;;;;;;11.00;9.27;;;12.10;99.90;;;;;;4993521;28;20438;-75
2021/10/10 16:32:12;;;;;;;15.50;8.67;;;11.90;99.90;;;;;;4993474;28;20221;-75
2021/10/10 16:34:42;;;;;;;13.20;8.30;;;11.70;99.90;;;;;;4993359;28;20184;-74
2021/10/10 16:39:50;;;;;;;7.90;6.80;;;11.40;99.90;;;;;;4993270;28;20429;-75
2021/10/10 16:42:17;;;;;;;11.17;6.83;;;11.30;99.90;;;;;;4993697;28;20195;-73
2021/10/10 16:44:43;;;;;;;12.83;8.90;;;11.10;99.90;;;;;;4993803;28;21221;-75
2021/10/10 16:47:10;;;;;;;12.20;9.03;;;10.90;99.90;;;;;;4993199;28;20494;-75
2021/10/10 16:49:36;;;;;;;10.40;7.97;;;10.70;99.90;;;;;;4992528;28;20178;-73
2021/10/10 16:52:02;;;;;;;12.03;8.97;;;10.60;99.90;;;;;;4992005;28;20442;-74
2021/10/10 16:54:28;;;;;;;14.40;8.10;;;10.50;99.90;;;;;;4993404;28;20429;-74
2021/10/10 16:56:54;;;;;;;13.80;9.40;;;10.30;99.90;;;;;;4993502;28;20990;-74
2021/10/10 16:59:20;;;;;;;16.60;8.83;;;10.30;99.90;;;;;;4992540;28;20179;-74
2021/10/10 17:01:47;;;;;;;31.90;10.40;;;10.20;99.90;;;;;;4992748;28;20594;-75
2021/10/10 17:04:13;;;;;;;16.00;8.60;;;10.10;99.90;;;;;;4992718;28;20462;-76
2021/10/10 17:06:39;;;;;;;14.03;9.33;;;9.90;99.90;;;;;;4994856;28;20449;-79
2021/10/10 17:09:04;;;;;;;14.83;8.10;;;9.80;99.90;;;;;;4994668;28;20472;-80
2021/10/10 17:11:30;;;;;;;10.57;7.27;;;9.70;99.90;;;;;;4994939;28;20192;-80
2021/10/10 17:14:01;;;;;;;12.23;8.00;;;9.60;99.90;;;;;;4994182;28;20176;-79
2021/10/10 17:16:27;;;;;;;13.90;8.70;;;9.40;99.90;;;;;;4994316;28;20768;-80